Airfield :
LOGIN :

Register | Disclaimer

   EN    FR    IT 

 










Legend :    VFR   Marginal VFR   IFR   Intensive IFR   Very Intensive IFR
Visi :
Ceiling :
>= 8 km
>= 3000ft
5 to 8 km
1000 to 3000 ft
1500m to 5 km
500 to 1000 ft
800 to 1500m
200 to 500 ft
< 800m
< 200 ft
Symbols :   Thunderstorms  Fog  Heavy snow  Heavy precipitations  Wind > 20 kt
SIGMETs :     Misc.  Thunderstorms  Icing  Turbulence  Mountain Waves  Volcanic Ashes






- Airport Elevation : 788 ft
- IATA code : DCM


LFCK - Castres-Mazamet

CURRENT METAR :
  • 282130Z AUTO 28007KT 9999 OVC030 08/07 Q1020 NOSIG

EXPIRED METARs :
  • 282100Z AUTO 30010KT 9999 FEW025 BKN036 BKN042 08/07 Q1020 NOSIG
  • 282030Z AUTO 30012KT 9999 SCT023/// BKN030/// BKN041/// ///TCU 09/07 Q1020 BECMG NSC
  • 282000Z AUTO 30013KT 9999 SCT026 BKN034 BKN040 09/07 Q1020 NOSIG
  • 281930Z AUTO 31011KT 9999 SCT022 BKN033 BKN042 09/08 Q1020 NOSIG
  • 281900Z AUTO 32009KT 9999 FEW027 SCT037 08/07 Q1020 TEMPO 30015G25KT SCT050TCU

TAF TAF LFCK
Valid from the 28 at 18:00 until the 29 at 03:00 UTC


281700Z 2818/2903 30014KT CAVOK
TEMPO 2818/2820 30015G25KT SCT050TCU
BECMG 2901/2903 30004KT



MET'MAP, your aeronautical weather chart ! - Copyright ORBIFLY December 2007 - Disclaimer

ORBIFLY MET'MAP TEAM :

Programming & Development : Alexandra Zaïnal
Concept & original design : Baudouin d'Aumeries
Assistance for programming : Marc-Olivier Méhu
Technical & hardware support : Manuel Goepfert

Contact : metmap@orbifly.com




SOURCES & CREDITS :

   NOAA